createdAt,value
2022-10-30T00:05:58.844Z,27.63
2022-10-30T00:13:34.045Z,22.67
2022-10-30T00:21:09.183Z,27.83
2022-10-30T00:28:44.252Z,23.33
2022-10-30T00:43:53.462Z,21.73
2022-10-30T00:51:30.064Z,26.73
2022-10-30T00:59:09.167Z,21.63
2022-10-30T01:06:48.179Z,23.33
2022-10-30T01:14:23.316Z,23.25
2022-10-30T01:29:56.368Z,20.77
2022-10-30T01:37:35.529Z,18.67
2022-10-30T01:45:16.432Z,21.17
2022-10-30T01:52:57.704Z,18.38
2022-10-30T02:00:33.364Z,20.10
2022-10-30T02:08:07.395Z,20.45
2022-10-30T02:15:43.717Z,25.15
2022-10-30T02:23:20.763Z,22.38
2022-10-30T02:30:54.493Z,17.77
2022-10-30T02:38:29.865Z,19.38
2022-10-30T02:46:03.579Z,21.10
2022-10-30T02:53:38.983Z,17.38
2022-10-30T03:01:14.975Z,16.20
2022-10-30T03:08:50.200Z,19.20
2022-10-30T03:16:29.362Z,22.00
2022-10-30T03:24:04.738Z,19.38
2022-10-30T03:31:38.448Z,19.92
2022-10-30T03:39:13.513Z,16.58
2022-10-30T03:46:47.205Z,18.30
2022-10-30T03:54:24.509Z,18.40
2022-10-30T04:01:58.291Z,21.20
2022-10-30T04:09:33.441Z,17.77
2022-10-30T04:24:42.324Z,21.50
2022-10-30T04:32:15.954Z,21.25
2022-10-30T04:39:50.874Z,24.30
2022-10-30T04:54:59.683Z,20.55
2022-10-30T05:10:12.107Z,21.75
2022-10-30T05:17:45.678Z,19.60
2022-10-30T05:25:20.641Z,19.92
2022-10-30T05:40:34.828Z,25.35
2022-10-30T05:48:09.000Z,26.35
2022-10-30T05:55:43.947Z,21.90
2022-10-30T06:03:17.865Z,20.63
2022-10-30T06:10:55.295Z,23.30
2022-10-30T06:18:28.884Z,21.13
2022-10-30T06:26:03.936Z,22.13
2022-10-30T06:41:12.285Z,20.40
2022-10-30T06:56:20.704Z,20.33
2022-10-30T07:11:29.195Z,21.52
2022-10-30T07:26:39.811Z,21.00
2022-10-30T07:34:13.457Z,20.05
2022-10-30T07:41:50.243Z,20.17
2022-10-30T07:49:24.377Z,20.02
2022-10-30T07:56:59.447Z,27.30
2022-10-30T08:12:09.034Z,17.05
2022-10-30T08:19:42.866Z,19.48
2022-10-30T08:27:17.803Z,19.40
2022-10-30T08:34:51.476Z,20.63
2022-10-30T08:42:26.527Z,20.08
2022-10-30T08:50:00.226Z,16.10
2022-10-30T08:57:38.397Z,15.90
2022-10-30T09:05:12.713Z,17.25
2022-10-30T09:12:47.707Z,19.43
2022-10-30T09:20:21.523Z,12.57
2022-10-30T09:27:56.522Z,14.88
2022-10-30T09:43:15.386Z,14.07
2022-10-30T09:50:57.844Z,13.02
2022-10-30T09:58:37.297Z,19.17
2022-10-30T10:06:18.426Z,19.50
2022-10-30T10:13:57.416Z,10.07
2022-10-30T10:21:36.172Z,9.63
2022-10-30T10:29:34.092Z,10.52
2022-10-30T10:37:17.393Z,12.32
2022-10-30T10:45:04.270Z,9.32
2022-10-30T10:52:41.840Z,12.07
2022-10-30T11:00:20.029Z,7.72
2022-10-30T11:07:59.708Z,15.05
2022-10-30T11:15:47.147Z,14.10
2022-10-30T11:23:35.295Z,10.13
2022-10-30T11:31:24.752Z,16.02
2022-10-30T11:39:09.993Z,9.13
2022-10-30T11:46:45.102Z,11.48
2022-10-30T11:54:22.642Z,8.50
2022-10-30T12:02:03.023Z,13.88
2022-10-30T12:09:43.134Z,10.00
2022-10-30T12:17:19.807Z,9.13
2022-10-30T12:24:53.787Z,11.45
2022-10-30T12:32:39.676Z,12.00
2022-10-30T12:40:17.842Z,14.25
2022-10-30T12:47:59.337Z,9.23
2022-10-30T12:55:38.177Z,13.68
2022-10-30T13:03:25.020Z,10.05
2022-10-30T13:11:06.326Z,15.38
2022-10-30T13:18:41.438Z,11.57
2022-10-30T13:26:25.171Z,11.70
2022-10-30T13:34:08.177Z,10.35
2022-10-30T13:41:52.159Z,7.65
2022-10-30T13:49:45.639Z,7.38
2022-10-30T13:57:26.262Z,11.85
2022-10-30T14:05:15.704Z,14.13
2022-10-30T14:12:54.269Z,7.47
2022-10-30T14:20:29.947Z,9.27
2022-10-30T14:28:03.872Z,9.45
2022-10-30T14:36:14.393Z,11.35
2022-10-30T14:43:58.013Z,9.65
2022-10-30T14:51:38.320Z,12.13
2022-10-30T14:59:24.488Z,13.80
2022-10-30T15:07:07.459Z,11.73
2022-10-30T15:15:00.497Z,8.75
2022-10-30T15:22:37.012Z,9.40
2022-10-30T15:30:18.188Z,10.48
2022-10-30T15:38:01.621Z,10.98
2022-10-30T15:45:37.170Z,8.35
2022-10-30T15:53:20.352Z,11.90
2022-10-30T16:00:58.575Z,10.15
2022-10-30T16:08:44.645Z,9.75
2022-10-30T16:16:23.070Z,11.23
2022-10-30T16:24:00.930Z,10.10
2022-10-30T16:31:37.055Z,10.02
2022-10-30T16:39:16.706Z,9.35
2022-10-30T16:46:52.693Z,12.45
2022-10-30T16:54:31.704Z,12.90
2022-10-30T17:02:13.713Z,9.57
2022-10-30T17:09:52.290Z,11.43
2022-10-30T17:17:29.610Z,10.32
2022-10-30T17:25:16.568Z,9.77
2022-10-30T17:32:54.622Z,9.32
2022-10-30T17:40:29.629Z,12.13
2022-10-30T17:55:40.484Z,18.52
2022-10-30T18:03:14.197Z,22.73
2022-10-30T18:10:49.281Z,20.42
2022-10-30T18:25:57.826Z,21.17
2022-10-30T18:41:07.211Z,14.63
2022-10-30T18:48:41.163Z,16.52
2022-10-30T18:56:16.473Z,19.33
2022-10-30T19:03:50.617Z,16.10
2022-10-30T19:11:26.799Z,16.30
2022-10-30T19:19:01.969Z,14.90
2022-10-30T19:26:37.155Z,15.40
2022-10-30T19:34:10.859Z,15.57
2022-10-30T19:41:45.811Z,16.95
2022-10-30T19:49:21.487Z,23.20
2022-10-30T19:56:56.418Z,20.85
2022-10-30T20:04:30.086Z,24.15
2022-10-30T20:12:06.086Z,23.73
2022-10-30T20:19:42.252Z,21.10
2022-10-30T20:27:17.249Z,24.95
2022-10-30T20:42:26.529Z,24.15
2022-10-30T20:50:00.592Z,26.48
2022-10-30T21:05:30.621Z,27.50
2022-10-30T21:13:11.072Z,25.08
2022-10-30T21:20:45.052Z,28.80
2022-10-30T21:28:20.008Z,29.10
2022-10-30T21:43:28.504Z,32.15
2022-10-30T21:58:44.671Z,32.40
2022-10-30T22:06:20.261Z,31.77
2022-10-30T22:13:56.372Z,34.30
2022-10-30T22:21:30.763Z,31.95
2022-10-30T22:29:05.758Z,32.70
2022-10-30T22:36:39.312Z,32.78
2022-10-30T22:44:17.388Z,34.47
2022-10-30T22:51:51.542Z,32.92
2022-10-30T22:59:26.687Z,32.57
2022-10-30T23:07:00.376Z,32.80
2022-10-30T23:14:35.622Z,32.25
2022-10-30T23:22:09.258Z,33.17
2022-10-30T23:29:44.170Z,37.78
2022-10-30T23:44:52.634Z,40.22
